createdAt,value
2023-03-08T00:04:28.388Z,30.40
2023-03-08T00:09:30.625Z,38.08
2023-03-08T00:14:32.646Z,37.15
2023-03-08T00:19:34.809Z,34.15
2023-03-08T00:24:37.002Z,36.45
2023-03-08T00:29:39.003Z,42.85
2023-03-08T00:34:46.216Z,43.80
2023-03-08T00:39:52.601Z,44.33
2023-03-08T00:44:55.224Z,41.97
2023-03-08T00:49:57.262Z,42.90
2023-03-08T00:54:59.270Z,45.60
2023-03-08T01:00:02.218Z,46.35
2023-03-08T01:05:04.616Z,46.42
2023-03-08T01:10:06.978Z,50.08
2023-03-08T01:15:09.639Z,48.78
2023-03-08T01:20:12.163Z,48.95
2023-03-08T01:25:15.798Z,48.47
2023-03-08T01:30:18.010Z,51.05
2023-03-08T01:35:20.260Z,49.22
2023-03-08T01:40:23.077Z,61.92
2023-03-08T01:46:04.505Z,57.80
2023-03-08T01:51:10.982Z,58.22
2023-03-08T01:56:17.438Z,72.05
2023-03-08T02:01:20.480Z,77.72
2023-03-08T02:06:23.976Z,83.72
2023-03-08T02:11:26.140Z,89.55
2023-03-08T02:16:31.452Z,94.20
2023-03-08T02:21:34.726Z,97.25
2023-03-08T02:26:38.157Z,98.07
2023-03-08T02:31:41.084Z,114.68
2023-03-08T02:36:43.869Z,105.03
2023-03-08T02:41:46.516Z,119.35
2023-03-08T02:46:49.045Z,124.57
2023-03-08T02:51:51.130Z,133.73
2023-03-08T02:56:53.303Z,122.93
2023-03-08T03:01:55.645Z,129.40
2023-03-08T03:06:58.232Z,121.60
2023-03-08T03:12:00.841Z,113.30
2023-03-08T03:17:03.455Z,114.30
2023-03-08T03:22:05.844Z,106.15
2023-03-08T03:27:07.966Z,101.45
2023-03-08T03:32:12.639Z,97.28
2023-03-08T03:37:15.250Z,98.45
2023-03-08T03:42:18.121Z,93.72
2023-03-08T03:47:31.239Z,96.97
2023-03-08T03:52:38.128Z,99.53
2023-03-08T03:57:40.555Z,98.53
2023-03-08T04:02:46.902Z,86.45
2023-03-08T04:07:52.373Z,85.50
2023-03-08T04:12:57.859Z,84.75
2023-03-08T04:18:00.082Z,90.95
2023-03-08T04:23:05.047Z,77.60
2023-03-08T04:28:12.740Z,77.50
2023-03-08T04:33:15.092Z,80.38
2023-03-08T04:38:21.890Z,76.78
2023-03-08T04:43:27.069Z,79.28
2023-03-08T04:48:29.492Z,78.25
2023-03-08T04:53:32.352Z,71.82
2023-03-08T04:58:36.310Z,74.32
2023-03-08T05:03:40.154Z,68.05
2023-03-08T05:08:43.170Z,69.13
2023-03-08T05:13:46.562Z,69.13
2023-03-08T05:18:48.928Z,69.72
2023-03-08T05:23:53.483Z,66.28
2023-03-08T05:29:01.664Z,60.22
2023-03-08T05:34:04.304Z,62.55
2023-03-08T05:39:11.517Z,61.00
2023-03-08T05:44:29.849Z,57.90
2023-03-08T05:49:34.410Z,50.67
2023-03-08T05:54:36.853Z,40.05
2023-03-08T05:59:44.687Z,31.45
2023-03-08T06:04:50.020Z,24.55
2023-03-08T06:09:56.333Z,24.08
2023-03-08T06:14:59.334Z,25.42
2023-03-08T06:20:04.589Z,17.80
2023-03-08T06:25:09.261Z,17.05
2023-03-08T06:30:13.178Z,17.88
2023-03-08T06:35:15.990Z,20.05
2023-03-08T06:40:23.787Z,15.60
2023-03-08T06:45:26.198Z,18.17
2023-03-08T06:50:28.259Z,19.55
2023-03-08T06:55:30.441Z,17.57
2023-03-08T07:00:33.141Z,18.15
2023-03-08T07:05:35.304Z,21.48
2023-03-08T07:10:37.373Z,21.60
2023-03-08T07:15:40.529Z,20.58
2023-03-08T07:20:43.088Z,21.88
2023-03-08T07:25:45.278Z,21.02
2023-03-08T07:30:48.932Z,19.08
2023-03-08T07:35:51.457Z,17.65
2023-03-08T07:40:56.052Z,18.27
2023-03-08T07:46:02.514Z,17.63
2023-03-08T07:51:07.339Z,15.40
2023-03-08T07:56:10.315Z,16.88
2023-03-08T08:01:14.361Z,15.73
2023-03-08T08:06:17.124Z,15.60
2023-03-08T08:11:20.026Z,12.90
2023-03-08T08:16:22.177Z,14.18
2023-03-08T08:21:26.421Z,13.27
2023-03-08T08:26:29.275Z,12.70
2023-03-08T08:31:31.592Z,11.90
2023-03-08T08:36:33.634Z,11.68
2023-03-08T08:41:35.709Z,12.45
2023-03-08T08:46:38.177Z,12.43
2023-03-08T08:51:40.238Z,11.45
2023-03-08T08:56:43.506Z,10.57
2023-03-08T09:01:46.966Z,12.82
2023-03-08T09:06:49.269Z,11.93
2023-03-08T09:11:55.409Z,18.77
2023-03-08T09:16:57.831Z,14.57
2023-03-08T09:22:00.127Z,13.48
2023-03-08T09:27:05.507Z,14.43
2023-03-08T09:32:07.968Z,12.05
2023-03-08T09:37:11.885Z,14.63
2023-03-08T09:42:33.889Z,17.15
2023-03-08T09:48:10.927Z,15.50
2023-03-08T09:53:37.330Z,19.33
2023-03-08T09:58:49.240Z,20.17
2023-03-08T10:04:15.217Z,19.55
2023-03-08T10:09:37.230Z,17.48
2023-03-08T10:14:45.103Z,18.45
2023-03-08T10:19:56.043Z,19.98
2023-03-08T10:25:03.954Z,20.48
2023-03-08T10:30:16.367Z,27.38
2023-03-08T10:35:29.854Z,23.92
2023-03-08T10:40:31.970Z,27.23
2023-03-08T10:45:34.150Z,27.52
2023-03-08T10:50:37.712Z,26.88
2023-03-08T10:55:46.879Z,27.95
2023-03-08T11:00:53.202Z,28.85
2023-03-08T11:06:13.449Z,20.60
2023-03-08T11:11:15.741Z,26.80
2023-03-08T11:16:49.740Z,26.30
2023-03-08T11:22:33.244Z,26.20
2023-03-08T11:28:03.842Z,26.58
2023-03-08T11:33:21.132Z,23.37
2023-03-08T11:38:29.115Z,25.63
2023-03-08T11:43:47.811Z,25.48
2023-03-08T11:49:01.944Z,25.38
2023-03-08T11:54:20.686Z,26.33
2023-03-08T11:59:35.671Z,19.48
2023-03-08T12:04:47.524Z,18.40
2023-03-08T12:09:56.556Z,18.88
2023-03-08T12:15:19.242Z,22.23
2023-03-08T12:20:23.502Z,20.10
2023-03-08T12:25:34.411Z,21.65
2023-03-08T12:30:56.843Z,19.35
2023-03-08T12:36:05.663Z,19.73
2023-03-08T12:41:38.425Z,21.17
2023-03-08T12:47:14.448Z,18.15
2023-03-08T12:52:19.268Z,18.85
2023-03-08T12:57:24.566Z,16.92
2023-03-08T13:02:31.005Z,16.15
2023-03-08T13:08:09.174Z,17.52
2023-03-08T13:13:18.426Z,17.67
2023-03-08T13:18:29.018Z,17.58
2023-03-08T13:23:40.610Z,14.95
2023-03-08T13:28:47.973Z,13.80
2023-03-08T13:33:53.918Z,14.23
2023-03-08T13:38:57.705Z,15.13
2023-03-08T13:44:05.637Z,14.80
2023-03-08T13:49:14.296Z,15.55
2023-03-08T13:54:29.394Z,15.13
2023-03-08T13:59:32.473Z,15.15
2023-03-08T14:04:34.841Z,16.35
2023-03-08T14:09:38.111Z,16.58
2023-03-08T14:14:44.301Z,15.23
2023-03-08T14:19:53.300Z,19.27
2023-03-08T14:25:00.530Z,16.75
2023-03-08T14:30:13.942Z,17.75
2023-03-08T14:35:25.320Z,18.08
2023-03-08T14:40:35.354Z,17.73
2023-03-08T14:45:40.452Z,18.53
2023-03-08T14:51:02.039Z,23.45
2023-03-08T14:56:13.201Z,19.20
2023-03-08T15:01:30.400Z,18.98
2023-03-08T15:06:35.279Z,19.40
2023-03-08T15:11:37.357Z,18.83
2023-03-08T15:16:40.078Z,22.48
2023-03-08T15:21:42.756Z,22.40
2023-03-08T15:26:45.617Z,20.52
2023-03-08T15:31:47.935Z,19.25
2023-03-08T15:36:50.929Z,21.08
2023-03-08T15:41:53.204Z,22.05
2023-03-08T15:46:55.447Z,19.88
2023-03-08T15:51:57.480Z,20.20
2023-03-08T15:57:00.124Z,20.67
2023-03-08T16:02:02.303Z,20.30
2023-03-08T16:07:04.601Z,18.75
2023-03-08T16:12:07.542Z,19.20
2023-03-08T16:17:09.652Z,21.75
2023-03-08T16:22:11.852Z,15.45
2023-03-08T16:27:14.048Z,15.63
2023-03-08T16:32:18.479Z,17.48
2023-03-08T16:37:20.955Z,19.27
2023-03-08T16:42:23.043Z,20.02
2023-03-08T16:47:26.577Z,18.77
2023-03-08T16:52:28.824Z,21.13
2023-03-08T16:57:30.968Z,22.85
2023-03-08T17:02:33.041Z,19.98
2023-03-08T17:07:35.183Z,20.13
2023-03-08T17:12:37.338Z,19.60
2023-03-08T17:17:39.834Z,18.52
2023-03-08T17:22:42.601Z,18.33
2023-03-08T17:27:44.859Z,22.20
2023-03-08T17:32:47.362Z,21.67
2023-03-08T17:37:51.452Z,19.65
2023-03-08T17:42:53.645Z,20.10
2023-03-08T17:48:01.112Z,22.42
2023-03-08T17:53:03.298Z,23.95
2023-03-08T17:58:05.369Z,20.42
2023-03-08T18:03:07.587Z,23.23
2023-03-08T18:08:09.912Z,21.30
2023-03-08T18:13:12.069Z,21.90
2023-03-08T18:18:14.099Z,21.05
2023-03-08T18:23:16.254Z,28.02
2023-03-08T18:28:18.581Z,23.27
2023-03-08T18:33:22.681Z,24.60
2023-03-08T18:38:25.209Z,27.98
2023-03-08T18:43:27.377Z,26.02
2023-03-08T18:48:29.478Z,30.38
2023-03-08T18:53:31.786Z,26.15
2023-03-08T18:58:34.018Z,25.60
2023-03-08T19:03:36.077Z,26.00
2023-03-08T19:08:38.712Z,24.40
2023-03-08T19:13:42.262Z,26.10
2023-03-08T19:18:44.555Z,27.25
2023-03-08T19:23:47.141Z,27.13
2023-03-08T19:28:49.276Z,35.03
2023-03-08T19:33:51.367Z,32.25
2023-03-08T19:38:55.673Z,31.92
2023-03-08T19:43:57.948Z,35.22
2023-03-08T19:49:00.151Z,34.53
2023-03-08T19:54:03.124Z,32.85
2023-03-08T19:59:05.361Z,26.85
2023-03-08T20:04:09.830Z,29.15
2023-03-08T20:09:14.270Z,31.60
2023-03-08T20:14:16.883Z,30.13
2023-03-08T20:19:19.036Z,31.02
2023-03-08T20:24:23.110Z,28.98
2023-03-08T20:29:25.204Z,29.55
2023-03-08T20:34:27.505Z,27.63
2023-03-08T20:39:29.596Z,31.10
2023-03-08T20:44:31.603Z,31.27
2023-03-08T20:49:33.709Z,29.77
2023-03-08T20:54:36.545Z,32.08
2023-03-08T20:59:38.733Z,30.08
2023-03-08T21:04:40.902Z,30.10
2023-03-08T21:09:44.517Z,32.88
2023-03-08T21:14:49.952Z,30.52
2023-03-08T21:19:53.655Z,33.08
2023-03-08T21:24:55.638Z,32.42
2023-03-08T21:29:57.926Z,28.52
2023-03-08T21:35:00.249Z,29.67
2023-03-08T21:40:02.930Z,28.73
2023-03-08T21:45:05.430Z,30.10
2023-03-08T21:50:09.917Z,29.83
2023-03-08T21:55:12.059Z,32.90
2023-03-08T22:00:16.904Z,31.17
2023-03-08T22:05:19.175Z,29.42
2023-03-08T22:10:21.343Z,34.47
2023-03-08T22:15:23.415Z,31.80
2023-03-08T22:20:27.316Z,35.10
2023-03-08T22:25:29.447Z,32.35
2023-03-08T22:30:31.550Z,32.83
2023-03-08T22:35:34.035Z,32.03
2023-03-08T22:40:38.257Z,32.55
2023-03-08T22:45:40.476Z,32.78
2023-03-08T22:50:42.632Z,35.63
2023-03-08T22:55:47.917Z,34.33
2023-03-08T23:00:50.045Z,35.75
2023-03-08T23:05:52.134Z,35.17
2023-03-08T23:10:54.164Z,35.00
2023-03-08T23:15:56.285Z,36.35
2023-03-08T23:21:06.363Z,30.85
2023-03-08T23:26:15.009Z,34.87
2023-03-08T23:31:19.730Z,35.97
2023-03-08T23:36:24.074Z,35.30
2023-03-08T23:41:26.187Z,34.70
2023-03-08T23:46:29.561Z,31.92
2023-03-08T23:51:32.926Z,37.63
2023-03-08T23:56:38.407Z,35.17
